Pagina principale
METAR-TAF:

METAR-TAF

Aeroporti :

Bolzano, Italia

latitudine: 46-28N, longitudine: 011-20E, altezza: 262 m

Osservazione

Il bollettino è stato emesso 24 minuti fa, alle 12:50 UTC
Vento calmo
Temperature 3°C
Umidità 70%
Pressione 1007 hPa
Visibilità 10 km o più
Nubi sparse ad un'altezza di 3000 ft
Nuvoloso ad un'altezza di 4500 ft

METAR: LIPB 161250Z 00000KT 9999 SCT030 BKN045 03/M02 Q1007

Ora: 14:14 (13:14 UTC)

Previsione

Il bollettino è stato emesso 2 ore e 14 minuti fa, alle 11:00 UTC
Previsione valida dal 16 alle 12 UTC al 17 alle 12 UTC
Vento 5 kt da direzioni variabili
Visibilità 10 km o più
Nuvoloso ad un'altezza di 4000 ft
Temporaneamente
dal 17 alle 00 UTC al 17 alle 06 UTC
pioggia

TAF: LIPB 161100Z 1612/1712 VRB05KT 9999 BKN040 TEMPO 1700/1706 RA

Osservazioni e previsioni meteorologiche di più di 4000 aeroporti (messaggi METAR e TAF).

Le stazioni disponibili sono rappresentate dai dischi gialli e rossi sulla carta.

Puntare il mouse per vedere il nome della stazione.

Clicca sopra per visualizzare le osservazioni e previsioni meteorologiche.

Per cambiare la mappa : fare clic sui pulsanti verdi con una croce nera per ingrandire, il pulsante verde con un trattino per diminuire, o sulla freccia verde per le mappe adiacenti.


METAR-TAF: